Time;durP1;ratioP1;P1;durP2;ratioP2;P2;SDS_P1;SDS_P2;PMS_P1;PMS_P2;Temp;Humidity;BMP_temperature;BMP_pressure;BME280_temperature;BME280_humidity;BME280_pressure;Samples;Min_cycle;Max_cycle;Signal;HPM_P1;HPM_P2
2023/11/28 00:01:05;;;;;;;54.70;32.00;;;;;;;-0.73;88.96;99037.90;107435;280;113536;-54
2023/11/28 00:04:23;;;;;;;53.10;31.40;;;;;;;-0.80;88.94;99036.45;107359;280;94278;-55
2023/11/28 00:07:03;;;;;;;55.10;31.30;;;;;;;-0.85;88.71;99035.77;107372;280;98337;-55
2023/11/28 00:09:47;;;;;;;48.80;31.50;;;;;;;-0.96;88.82;99040.85;107413;280;120004;-55
2023/11/28 00:12:26;;;;;;;54.30;32.70;;;;;;;-1.04;88.82;99040.60;107228;280;155283;-54
2023/11/28 00:15:10;;;;;;;51.10;32.00;;;;;;;-1.05;88.77;99039.84;107322;280;114873;-54
2023/11/28 00:17:47;;;;;;;55.90;31.50;;;;;;;-1.06;88.88;99043.27;107217;280;156196;-54
2023/11/28 00:20:21;;;;;;;52.90;31.70;;;;;;;-1.07;88.97;99046.91;107436;280;96536;-55
2023/11/28 00:22:56;;;;;;;54.00;32.10;;;;;;;-1.06;88.91;99045.55;107278;280;154849;-55
2023/11/28 00:25:34;;;;;;;50.10;30.80;;;;;;;-1.06;89.00;99048.42;107425;280;105169;-51
2023/11/28 00:28:13;;;;;;;50.70;31.90;;;;;;;-1.04;89.10;99047.85;107400;280;114636;-53
2023/11/28 00:30:49;;;;;;;52.40;32.20;;;;;;;-0.99;89.10;99046.80;107328;280;94837;-55
2023/11/28 00:33:28;;;;;;;51.20;31.00;;;;;;;-0.93;89.12;99043.96;107392;280;97073;-56
2023/11/28 00:36:09;;;;;;;52.20;30.50;;;;;;;-0.95;89.25;99051.20;107226;280;154091;-54
2023/11/28 00:38:46;;;;;;;54.90;32.60;;;;;;;-0.96;89.35;99042.31;107399;281;106102;-53
2023/11/28 00:41:25;;;;;;;54.50;31.30;;;;;;;-0.99;89.61;99045.56;107221;281;155486;-53
2023/11/28 00:44:03;;;;;;;54.30;33.00;;;;;;;-0.96;89.61;99043.77;107355;281;94517;-53
2023/11/28 00:46:49;;;;;;;51.40;31.60;;;;;;;-0.95;89.46;99041.88;107227;281;154876;-52
2023/11/28 00:49:30;;;;;;;53.10;32.20;;;;;;;-0.97;89.55;99038.86;107389;281;119457;-57
2023/11/28 00:52:13;;;;;;;52.20;31.90;;;;;;;-0.97;89.49;99034.91;107344;281;104508;-57
2023/11/28 00:55:00;;;;;;;51.60;29.90;;;;;;;-0.97;89.54;99029.48;107253;281;113662;-54
2023/11/28 00:57:44;;;;;;;55.50;32.00;;;;;;;-1.05;89.61;99030.61;107350;281;94219;-54
2023/11/28 01:00:21;;;;;;;51.10;31.50;;;;;;;-1.08;89.60;99029.89;107267;280;155283;-51
2023/11/28 01:03:03;;;;;;;51.40;30.80;;;;;;;-1.08;89.64;99025.49;107398;280;119750;-52
2023/11/28 01:05:46;;;;;;;56.50;33.40;;;;;;;-1.09;89.73;99021.16;107215;280;154423;-54
2023/11/28 01:08:31;;;;;;;52.60;31.60;;;;;;;-1.10;89.66;99020.38;107363;280;113911;-54
2023/11/28 01:11:11;;;;;;;51.00;31.40;;;;;;;-1.16;89.64;99016.95;107256;280;154667;-56
2023/11/28 01:13:55;;;;;;;53.40;33.20;;;;;;;-1.22;89.65;99014.47;107391;280;98234;-57
2023/11/28 01:16:36;;;;;;;54.20;32.90;;;;;;;-1.23;89.75;99011.41;107269;280;154756;-57
2023/11/28 01:19:13;;;;;;;58.70;34.30;;;;;;;-1.22;89.67;99009.05;107446;280;105374;-58
2023/11/28 01:21:55;;;;;;;61.80;35.50;;;;;;;-1.21;89.64;98999.92;107351;280;114889;-56
2023/11/28 01:24:40;;;;;;;57.70;33.40;;;;;;;-1.19;89.67;98995.80;107286;280;154785;-53
2023/11/28 01:27:24;;;;;;;54.20;31.20;;;;;;;-1.21;89.72;98995.27;107375;280;98431;-54
2023/11/28 01:30:04;;;;;;;58.60;32.90;;;;;;;-1.19;89.81;98989.98;107249;280;154601;-53
2023/11/28 01:32:48;;;;;;;57.50;32.50;;;;;;;-1.17;89.74;98987.11;107386;280;105335;-52
2023/11/28 01:35:28;;;;;;;52.20;31.80;;;;;;;-1.18;89.71;98986.55;107296;280;154311;-52
2023/11/28 01:38:10;;;;;;;51.80;31.10;;;;;;;-1.23;89.88;98983.86;107394;280;92801;-52
2023/11/28 01:41:00;;;;;;;54.10;32.80;;;;;;;-1.31;90.00;98983.39;107254;280;157586;-52
2023/11/28 01:43:43;;;;;;;56.40;32.10;;;;;;;-1.33;89.96;98979.38;107386;280;119864;-52
2023/11/28 01:46:19;;;;;;;54.30;31.60;;;;;;;-1.35;90.03;98977.98;107374;280;104793;-53
2023/11/28 01:49:01;;;;;;;52.60;31.80;;;;;;;-1.41;90.06;98976.95;107395;280;114548;-57
2023/11/28 01:51:40;;;;;;;52.50;31.20;;;;;;;-1.42;89.99;98975.44;107379;280;93747;-57
2023/11/28 01:54:20;;;;;;;54.60;31.30;;;;;;;-1.43;90.17;98976.46;107306;280;155883;-54
2023/11/28 01:57:06;;;;;;;52.60;31.10;;;;;;;-1.43;90.30;98977.38;107391;280;120050;-55
2023/11/28 01:59:44;;;;;;;53.40;31.50;;;;;;;-1.38;90.38;98980.23;107274;280;154734;-54
2023/11/28 02:02:19;;;;;;;53.30;32.20;;;;;;;-1.37;90.21;98980.77;107431;280;114471;-54
2023/11/28 02:04:56;;;;;;;52.70;31.10;;;;;;;-1.33;90.32;98979.68;107279;280;155027;-54
2023/11/28 02:07:37;;;;;;;52.40;32.50;;;;;;;-1.26;90.24;98975.98;107431;280;97696;-53
2023/11/28 02:10:17;;;;;;;52.10;32.00;;;;;;;-1.26;90.31;98978.47;107373;280;119505;-57
2023/11/28 02:12:54;;;;;;;54.60;33.90;;;;;;;-1.26;90.63;98973.77;107374;280;106926;-57
2023/11/28 02:15:46;;;;;;;55.60;32.70;;;;;;;-1.26;90.47;98972.34;107378;280;114517;-53
2023/11/28 02:18:23;;;;;;;58.20;34.50;;;;;;;-1.26;90.36;98971.39;107248;280;154618;-54
2023/11/28 02:21:02;;;;;;;59.90;34.10;;;;;;;-1.24;90.40;98964.85;107402;280;97287;-53
2023/11/28 02:23:42;;;;;;;59.50;34.90;;;;;;;-1.24;90.28;98958.36;107241;280;154570;-52
2023/11/28 02:26:25;;;;;;;56.60;33.30;;;;;;;-1.27;90.28;98957.02;107428;280;103907;-51
2023/11/28 02:28:59;;;;;;;59.30;33.40;;;;;;;-1.29;90.33;98952.15;107238;278;155866;-54
2023/11/28 02:31:36;;;;;;;55.30;32.60;;;;;;;-1.28;90.45;98948.88;107428;280;94893;-55
2023/11/28 02:34:17;;;;;;;50.00;31.60;;;;;;;-1.27;90.40;98942.88;107406;280;98098;-56
2023/11/28 02:36:53;;;;;;;52.40;32.20;;;;;;;-1.31;90.12;98949.52;107255;281;119121;-56
2023/11/28 02:39:31;;;;;;;52.40;32.50;;;;;;;-1.45;90.18;98948.02;107357;281;104995;-54
2023/11/28 02:42:10;;;;;;;57.20;32.60;;;;;;;-1.51;90.35;98953.40;107291;281;154006;-53
2023/11/28 02:44:45;;;;;;;61.70;35.70;;;;;;;-1.51;90.42;98949.20;107446;280;95709;-53
2023/11/28 02:47:26;;;;;;;57.10;32.90;;;;;;;-1.51;90.21;98948.30;107309;280;155220;-52
2023/11/28 02:50:03;;;;;;;57.00;31.60;;;;;;;-1.56;90.17;98948.28;107363;281;119523;-52
2023/11/28 02:52:43;;;;;;;52.80;30.80;;;;;;;-1.63;90.30;98945.60;107252;281;154858;-52
2023/11/28 02:55:20;;;;;;;55.30;31.40;;;;;;;-1.68;90.41;98943.27;107424;280;114424;-52
2023/11/28 02:58:08;;;;;;;56.30;32.40;;;;;;;-1.77;90.45;98939.70;107452;280;95609;-53
2023/11/28 03:00:47;;;;;;;49.50;30.90;;;;;;;-1.87;90.36;98935.36;107215;280;155615;-57
2023/11/28 03:03:26;;;;;;;50.40;30.30;;;;;;;-1.95;90.18;98931.40;107402;281;119525;-55
2023/11/28 03:06:05;;;;;;;50.00;31.00;;;;;;;-1.98;90.05;98933.67;107348;280;154228;-55
2023/11/28 03:08:45;;;;;;;53.80;31.90;;;;;;;-2.08;90.03;98935.96;107373;280;115571;-55
2023/11/28 03:11:28;;;;;;;60.30;36.00;;;;;;;-2.20;89.95;98930.79;107250;281;153989;-55
2023/11/28 03:14:07;;;;;;;65.00;36.20;;;;;;;-2.27;89.98;98924.30;107369;280;96913;-57
2023/11/28 03:16:44;;;;;;;60.50;35.50;;;;;;;-2.37;89.88;98919.73;107237;280;154687;-58
2023/11/28 03:19:25;;;;;;;61.00;34.00;;;;;;;-2.46;89.79;98917.03;107379;281;103560;-53
2023/11/28 03:22:06;;;;;;;55.90;32.70;;;;;;;-2.55;89.77;98916.73;107358;281;114844;-53
2023/11/28 03:24:44;;;;;;;53.80;31.50;;;;;;;-2.65;89.65;98911.27;107255;280;155813;-55
2023/11/28 03:27:19;;;;;;;58.00;32.20;;;;;;;-2.73;89.69;98903.74;107463;280;97913;-55
2023/11/28 03:29:59;;;;;;;62.40;34.30;;;;;;;-2.75;89.71;98904.90;107251;279;154507;-53
2023/11/28 03:32:36;;;;;;;59.60;33.60;;;;;;;-2.82;89.71;98907.27;107451;281;103859;-54
2023/11/28 03:35:10;;;;;;;57.70;35.30;;;;;;;-2.90;89.61;98904.17;107271;280;154500;-56
2023/11/28 03:37:46;;;;;;;60.10;34.10;;;;;;;-2.99;89.66;98900.67;107472;280;92371;-57
2023/11/28 03:40:21;;;;;;;57.90;33.00;;;;;;;-3.08;89.59;98896.79;107431;281;97496;-51
2023/11/28 03:42:57;;;;;;;57.70;32.30;;;;;;;-3.12;89.67;98899.46;107358;280;119947;-51
2023/11/28 03:45:37;;;;;;;57.90;32.10;;;;;;;-3.12;89.79;98905.59;107362;280;104969;-57
2023/11/28 03:48:13;;;;;;;62.10;35.80;;;;;;;-3.11;89.76;98902.05;107191;281;156158;-57
2023/11/28 03:50:52;;;;;;;58.20;32.70;;;;;;;-3.08;89.86;98899.20;107365;280;95495;-57
2023/11/28 03:53:33;;;;;;;55.90;32.90;;;;;;;-2.99;90.05;98896.34;107277;280;154876;-53
2023/11/28 03:56:19;;;;;;;59.00;32.80;;;;;;;-2.91;90.32;98890.86;107419;280;119853;-51
2023/11/28 03:59:00;;;;;;;58.40;32.30;;;;;;;-2.84;90.37;98886.80;107273;280;155145;-51
2023/11/28 04:01:37;;;;;;;57.10;33.00;;;;;;;-2.78;90.65;98881.33;107471;280;114471;-51
2023/11/28 04:04:17;;;;;;;58.70;33.40;;;;;;;-2.68;90.77;98881.65;107429;280;95553;-52
2023/11/28 04:07:03;;;;;;;59.90;33.50;;;;;;;-2.62;90.80;98874.88;107247;280;155743;-53
2023/11/28 04:09:45;;;;;;;55.70;31.40;;;;;;;-2.55;90.82;98874.08;107387;280;119907;-51
2023/11/28 04:12:32;;;;;;;55.90;34.00;;;;;;;-2.54;90.83;98868.87;107269;280;155297;-51
2023/11/28 04:15:14;;;;;;;63.40;34.50;;;;;;;-2.48;90.95;98864.95;107373;280;112292;-52
2023/11/28 04:17:53;;;;;;;60.40;35.00;;;;;;;-2.48;91.05;98863.89;107258;280;155022;-53
2023/11/28 04:20:38;;;;;;;64.60;34.90;;;;;;;-2.46;90.98;98871.27;107348;280;96003;-52
2023/11/28 04:23:24;;;;;;;69.40;38.80;;;;;;;-2.42;90.92;98869.83;107250;280;156063;-52
2023/11/28 04:25:58;;;;;;;88.80;46.60;;;;;;;-2.36;91.02;98868.68;107375;280;103904;-52
2023/11/28 04:28:35;;;;;;;88.00;46.20;;;;;;;-2.27;91.18;98864.48;106692;280;749790;-52
2023/11/28 04:31:24;;;;;;;77.00;39.40;;;;;;;-2.19;91.27;98862.63;107348;280;95087;-51
2023/11/28 04:34:05;;;;;;;69.40;36.10;;;;;;;-2.09;91.35;98861.16;107353;280;97614;-52
2023/11/28 04:36:46;;;;;;;75.80;41.00;;;;;;;-2.00;91.25;98857.98;107238;280;155904;-51
2023/11/28 04:39:26;;;;;;;60.10;33.60;;;;;;;-1.94;91.17;98861.77;107268;280;105657;-55
2023/11/28 04:42:09;;;;;;;61.30;34.30;;;;;;;-1.89;91.25;98863.91;107229;280;154992;-56
2023/11/28 04:44:49;;;;;;;76.00;42.30;;;;;;;-1.83;91.19;98861.45;107332;281;96215;-53
2023/11/28 04:47:34;;;;;;;108.10;54.20;;;;;;;-1.78;91.13;98850.39;107124;281;154306;-51
2023/11/28 04:50:16;;;;;;;103.50;49.60;;;;;;;-1.71;90.99;98849.04;107340;281;118211;-50
2023/11/28 04:53:00;;;;;;;63.60;33.60;;;;;;;-1.79;91.06;98849.76;107203;281;155105;-50
2023/11/28 04:55:41;;;;;;;65.90;33.30;;;;;;;-1.82;90.89;98844.59;107317;281;114378;-55
2023/11/28 04:58:23;;;;;;;62.90;31.70;;;;;;;-1.90;90.87;98834.92;107362;281;93956;-56
2023/11/28 05:01:07;;;;;;;48.50;27.10;;;;;;;-1.95;90.83;98833.02;107254;280;154790;-51
2023/11/28 05:03:51;;;;;;;43.40;24.20;;;;;;;-1.96;90.75;98831.84;107431;280;119226;-55
2023/11/28 05:06:38;;;;;;;63.80;33.40;;;;;;;-1.95;90.72;98830.14;107279;280;154902;-56
2023/11/28 05:09:17;;;;;;;66.20;35.50;;;;;;;-1.92;90.61;98829.86;107356;281;113536;-53
2023/11/28 05:11:51;;;;;;;62.50;30.90;;;;;;;-1.92;90.51;98825.96;107172;281;154141;-53
2023/11/28 05:14:32;;;;;;;47.80;26.70;;;;;;;-1.96;90.52;98818.63;107374;281;98087;-51
2023/11/28 05:17:12;;;;;;;60.90;29.80;;;;;;;-1.95;90.52;98820.31;107225;281;154005;-51
2023/11/28 05:19:55;;;;;;;55.80;29.10;;;;;;;-1.96;90.45;98815.63;107375;281;105395;-56
2023/11/28 05:22:35;;;;;;;53.00;27.70;;;;;;;-2.02;90.34;98821.52;107392;281;113107;-55
2023/11/28 05:25:11;;;;;;;55.00;30.10;;;;;;;-2.10;90.30;98825.45;107358;281;94646;-54
2023/11/28 05:27:49;;;;;;;49.90;27.00;;;;;;;-2.11;90.33;98827.08;107365;281;97980;-54
2023/11/28 05:30:32;;;;;;;44.20;26.70;;;;;;;-2.05;90.33;98829.50;107139;281;154823;-54
2023/11/28 05:33:10;;;;;;;45.10;28.20;;;;;;;-2.04;90.29;98830.36;107402;280;105740;-54
2023/11/28 05:35:53;;;;;;;45.70;26.90;;;;;;;-2.10;90.39;98831.05;107149;281;154159;-49
2023/11/28 05:38:32;;;;;;;50.50;27.00;;;;;;;-2.15;90.26;98819.60;107378;281;93598;-56
2023/11/28 05:41:09;;;;;;;50.60;28.10;;;;;;;-2.23;90.16;98815.63;107236;281;154559;-56
2023/11/28 05:43:46;;;;;;;54.00;28.90;;;;;;;-2.37;90.14;98816.06;107381;280;119793;-51
2023/11/28 05:46:23;;;;;;;56.20;29.90;;;;;;;-2.41;89.95;98813.83;107443;280;105961;-53
2023/11/28 05:48:57;;;;;;;53.10;29.40;;;;;;;-2.47;89.88;98812.26;107242;280;154732;-49
2023/11/28 05:51:35;;;;;;;53.20;28.70;;;;;;;-2.53;89.99;98813.70;107401;281;92681;-51
2023/11/28 05:54:15;;;;;;;45.50;28.00;;;;;;;-2.56;89.94;98808.24;107220;281;154892;-52
2023/11/28 05:56:57;;;;;;;51.90;28.00;;;;;;;-2.62;89.99;98808.96;107322;281;120608;-53
2023/11/28 05:59:37;;;;;;;56.50;30.10;;;;;;;-2.68;89.97;98813.97;107206;281;155352;-53
2023/11/28 06:02:22;;;;;;;53.10;28.30;;;;;;;-2.74;90.03;98818.79;107338;281;114819;-53
2023/11/28 06:05:04;;;;;;;51.50;28.50;;;;;;;-2.78;89.94;98819.54;107240;281;155670;-51
2023/11/28 06:07:43;;;;;;;54.50;29.90;;;;;;;-2.81;89.97;98820.73;107418;281;98287;-52
2023/11/28 06:10:19;;;;;;;53.80;27.90;;;;;;;-2.83;89.99;98822.45;107396;281;119497;-51
2023/11/28 06:12:58;;;;;;;51.80;28.40;;;;;;;-2.86;90.05;98827.50;107307;280;155976;-52
2023/11/28 06:15:35;;;;;;;54.20;29.20;;;;;;;-2.92;90.13;98832.66;107435;280;114284;-54
2023/11/28 06:18:17;;;;;;;54.80;30.70;;;;;;;-2.99;90.18;98828.50;107265;280;155341;-53
2023/11/28 06:20:57;;;;;;;58.00;31.00;;;;;;;-3.01;90.24;98824.48;107358;281;97949;-55
2023/11/28 06:23:44;;;;;;;57.50;31.70;;;;;;;-3.04;90.36;98823.86;107163;281;154716;-52
2023/11/28 06:26:23;;;;;;;56.60;31.20;;;;;;;-3.02;90.27;98827.87;107356;281;104899;-52
2023/11/28 06:29:05;;;;;;;57.90;31.30;;;;;;;-3.00;90.33;98828.59;107227;281;155741;-51
2023/11/28 06:31:39;;;;;;;58.40;30.30;;;;;;;-3.01;90.41;98824.61;107284;281;93589;-52
2023/11/28 06:34:17;;;;;;;60.70;31.90;;;;;;;-2.98;90.57;98824.77;107272;281;97976;-53
2023/11/28 06:36:51;;;;;;;59.60;32.20;;;;;;;-2.97;90.60;98826.27;107204;280;154661;-52
2023/11/28 06:39:27;;;;;;;;;;;;;;;-2.95;90.61;98830.30;107489;280;105411;-52
2023/11/28 06:42:02;;;;;;;59.40;33.20;;;;;;;-2.90;90.62;98832.14;107274;280;141206;-54
2023/11/28 06:44:45;;;;;;;56.90;32.40;;;;;;;-2.85;90.66;98831.77;107389;281;95541;-54
2023/11/28 06:47:34;;;;;;;62.40;32.80;;;;;;;-2.84;90.67;98833.89;107238;280;156071;-52
2023/11/28 06:50:11;;;;;;;60.90;32.70;;;;;;;-2.84;90.75;98834.19;107431;280;119295;-54
2023/11/28 06:52:54;;;;;;;61.60;34.10;;;;;;;-2.82;90.73;98832.08;107277;280;157035;-52
2023/11/28 06:55:41;;;;;;;63.80;34.40;;;;;;;-2.75;90.72;98830.30;107360;281;113423;-56
2023/11/28 06:58:22;;;;;;;64.50;33.80;;;;;;;-2.69;90.66;98834.03;107351;281;92649;-56
2023/11/28 07:01:03;;;;;;;62.10;35.00;;;;;;;-2.68;90.68;98831.96;107272;280;155758;-56
2023/11/28 07:03:41;;;;;;;68.60;37.60;;;;;;;-2.64;90.76;98831.08;107449;280;118929;-55
2023/11/28 07:06:23;;;;;;;63.30;35.00;;;;;;;-2.63;90.63;98839.05;107243;280;154201;-56
2023/11/28 07:09:09;;;;;;;64.30;35.60;;;;;;;-2.63;90.77;98837.23;107363;281;113854;-50
2023/11/28 07:11:54;;;;;;;66.30;35.40;;;;;;;-2.57;90.59;98841.98;107194;281;155920;-52
2023/11/28 07:14:32;;;;;;;66.70;35.70;;;;;;;-2.56;90.59;98843.50;107328;281;97671;-51
2023/11/28 07:17:09;;;;;;;61.30;35.50;;;;;;;-2.54;90.48;98840.82;107196;281;155242;-51
2023/11/28 07:19:53;;;;;;;65.20;34.10;;;;;;;-2.52;90.44;98843.13;107380;281;105596;-56
2023/11/28 07:22:36;;;;;;;63.40;33.90;;;;;;;-2.50;90.38;98847.35;107251;281;114114;-56
2023/11/28 07:25:14;;;;;;;66.50;34.50;;;;;;;-2.48;90.42;98848.04;107373;280;94304;-51
2023/11/28 07:27:51;;;;;;;64.10;35.10;;;;;;;-2.42;90.31;98848.52;107451;280;97090;-50
2023/11/28 07:30:33;;;;;;;64.30;35.00;;;;;;;-2.36;90.26;98846.88;107270;280;154100;-50
2023/11/28 07:33:08;;;;;;;65.50;35.80;;;;;;;-2.30;90.23;98841.55;107427;280;106168;-51
2023/11/28 07:35:47;;;;;;;63.30;34.90;;;;;;;-2.27;90.20;98843.02;107223;280;155277;-56
2023/11/28 07:38:24;;;;;;;59.50;32.70;;;;;;;-2.24;90.16;98845.73;107355;281;94613;-52
2023/11/28 07:41:00;;;;;;;59.10;34.80;;;;;;;-2.23;90.09;98844.95;107248;281;155933;-52
2023/11/28 07:43:40;;;;;;;64.30;34.10;;;;;;;-2.14;90.23;98851.08;107271;281;118155;-51
2023/11/28 07:46:24;;;;;;;63.30;35.00;;;;;;;-2.08;90.21;98855.61;107289;281;105127;-52
2023/11/28 07:49:00;;;;;;;63.10;33.70;;;;;;;-2.04;90.19;98859.20;107191;281;154664;-55
2023/11/28 07:51:40;;;;;;;64.00;35.10;;;;;;;-1.94;90.18;98861.80;107396;281;93770;-54
2023/11/28 07:54:16;;;;;;;67.60;37.40;;;;;;;-1.91;90.04;98868.75;107207;281;154065;-53
2023/11/28 07:56:57;;;;;;;70.30;36.50;;;;;;;-1.88;89.97;98867.79;107344;281;120037;-52
2023/11/28 07:59:46;;;;;;;61.80;35.20;;;;;;;-1.88;89.87;98863.98;107265;281;155051;-53
2023/11/28 08:02:23;;;;;;;63.80;37.30;;;;;;;-1.82;89.79;98861.30;107326;281;114050;-54
2023/11/28 08:05:00;;;;;;;61.90;34.60;;;;;;;-1.75;89.64;98865.41;107253;280;154956;-51
2023/11/28 08:07:36;;;;;;;66.30;35.60;;;;;;;-1.70;89.44;98868.13;107348;280;97532;-51
2023/11/28 08:10:14;;;;;;;63.10;33.30;;;;;;;-1.72;89.35;98870.44;107426;280;119422;-53
2023/11/28 08:12:53;;;;;;;64.10;34.10;;;;;;;-1.69;89.34;98873.48;107313;278;155125;-54
2023/11/28 08:15:35;;;;;;;64.80;36.20;;;;;;;-1.61;89.46;98871.85;107364;281;112603;-53
2023/11/28 08:18:10;;;;;;;63.90;37.90;;;;;;;-1.58;89.37;98873.11;107160;281;154341;-54
2023/11/28 08:20:45;;;;;;;64.20;35.80;;;;;;;-1.56;89.24;98871.30;107393;281;95300;-52
2023/11/28 08:23:28;;;;;;;66.70;39.30;;;;;;;-1.55;89.14;98870.48;107241;281;155015;-53
2023/11/28 08:26:05;;;;;;;64.00;38.20;;;;;;;-1.50;89.16;98868.62;107380;281;105566;-51
2023/11/28 08:28:41;;;;;;;74.30;38.70;;;;;;;-1.42;89.16;98866.54;107416;281;114358;-52
2023/11/28 08:31:24;;;;;;;68.60;36.80;;;;;;;-1.41;89.03;98859.90;107228;281;95758;-53
2023/11/28 08:33:59;;;;;;;64.10;36.70;;;;;;;-1.32;88.79;98857.04;107379;281;98175;-53
2023/11/28 08:36:36;;;;;;;57.50;33.90;;;;;;;-1.34;88.53;98853.71;107117;281;154448;-53
2023/11/28 08:39:14;;;;;;;62.50;35.20;;;;;;;-1.36;88.55;98854.67;107406;281;106241;-56
2023/11/28 08:41:51;;;;;;;65.90;35.60;;;;;;;-1.32;88.34;98856.73;107259;281;154062;-54
2023/11/28 08:44:26;;;;;;;58.80;33.40;;;;;;;-1.40;87.94;98861.22;107355;281;93321;-50
2023/11/28 08:47:03;;;;;;;58.20;34.20;;;;;;;-1.47;87.85;98855.40;107256;281;153778;-50
2023/11/28 08:49:37;;;;;;;63.70;36.50;;;;;;;-1.40;87.82;98847.29;107424;280;119290;-53
2023/11/28 08:52:15;;;;;;;71.50;36.80;;;;;;;-1.34;87.75;98846.49;107409;280;105752;-55
2023/11/28 08:54:50;;;;;;;63.50;36.30;;;;;;;-1.33;87.72;98849.58;107241;280;155215;-50
2023/11/28 08:57:33;;;;;;;59.20;34.90;;;;;;;-1.37;87.45;98845.53;107391;281;95154;-50
2023/11/28 09:00:14;;;;;;;73.10;39.90;;;;;;;-1.36;87.47;98841.94;107126;282;154511;-50
2023/11/28 09:02:52;;;;;;;67.40;38.30;;;;;;;-1.29;87.51;98841.61;107383;281;119664;-53
2023/11/28 09:05:35;;;;;;;61.80;35.70;;;;;;;-1.20;87.40;98841.61;107247;281;153935;-54
2023/11/28 09:08:17;;;;;;;63.40;36.10;;;;;;;-1.14;87.38;98837.45;107373;281;114227;-54
2023/11/28 09:11:02;;;;;;;62.20;34.90;;;;;;;-1.16;87.20;98839.55;107254;281;154388;-55
2023/11/28 09:13:40;;;;;;;60.70;33.80;;;;;;;-1.18;87.02;98835.02;107389;281;97481;-51
2023/11/28 09:16:16;;;;;;;58.00;34.10;;;;;;;-1.16;86.97;98835.30;107346;281;119503;-52
2023/11/28 09:18:54;;;;;;;68.10;36.50;;;;;;;-1.16;86.92;98836.23;107158;281;154886;-52
2023/11/28 09:21:35;;;;;;;70.80;38.40;;;;;;;-1.10;86.91;98833.54;107346;281;112849;-52
2023/11/28 09:24:11;;;;;;;59.90;35.70;;;;;;;-1.14;86.84;98832.80;107228;281;154397;-55
2023/11/28 09:26:47;;;;;;;65.40;37.90;;;;;;;-1.02;86.85;98828.27;107424;281;97604;-56
2023/11/28 09:29:26;;;;;;;62.30;35.80;;;;;;;-0.98;86.58;98823.98;107263;281;154045;-52
2023/11/28 09:32:07;;;;;;;63.40;37.20;;;;;;;-0.99;86.46;98821.95;107445;280;104471;-52
2023/11/28 09:34:44;;;;;;;64.80;35.70;;;;;;;-1.01;86.30;98825.46;107478;280;114516;-52
2023/11/28 09:37:20;;;;;;;69.00;37.60;;;;;;;-1.01;86.27;98822.17;107417;280;95063;-51
2023/11/28 09:39:57;;;;;;;66.90;38.30;;;;;;;-1.05;86.14;98820.13;107435;280;97652;-51
2023/11/28 09:42:39;;;;;;;59.90;33.50;;;;;;;-1.05;86.22;98818.14;107262;280;155093;-51
2023/11/28 09:45:20;;;;;;;58.60;34.50;;;;;;;-1.02;86.20;98813.89;107394;281;104826;-55
2023/11/28 09:48:04;;;;;;;54.30;31.90;;;;;;;-0.91;86.18;98807.48;107164;281;155921;-54
2023/11/28 09:50:46;;;;;;;52.70;32.50;;;;;;;-0.88;85.58;98808.06;107327;281;92199;-50
2023/11/28 09:53:31;;;;;;;62.80;33.70;;;;;;;-0.85;85.46;98807.59;107261;281;154097;-51
2023/11/28 09:56:11;;;;;;;54.40;33.20;;;;;;;-0.93;85.29;98804.84;107351;281;118951;-51
2023/11/28 09:58:57;;;;;;;58.30;33.80;;;;;;;-1.00;85.02;98803.13;107235;281;155213;-52
2023/11/28 10:01:40;;;;;;;57.00;32.70;;;;;;;-1.03;85.11;98799.19;107304;281;114223;-52
2023/11/28 10:04:21;;;;;;;61.00;32.00;;;;;;;-0.96;85.01;98797.64;107367;281;95376;-51
2023/11/28 10:07:03;;;;;;;63.90;36.30;;;;;;;-0.89;85.11;98797.94;107207;281;155801;-50
2023/11/28 10:09:43;;;;;;;64.10;36.40;;;;;;;-0.83;85.14;98793.77;107360;281;120788;-51
2023/11/28 10:12:25;;;;;;;64.70;37.10;;;;;;;-0.75;84.85;98793.32;107261;280;154842;-51
2023/11/28 10:15:06;;;;;;;63.30;35.30;;;;;;;-0.67;84.87;98783.56;107438;280;114624;-53
2023/11/28 10:17:55;;;;;;;66.20;36.20;;;;;;;-0.61;84.92;98783.19;107192;280;153952;-52
2023/11/28 10:20:33;;;;;;;73.70;38.50;;;;;;;-0.49;84.81;98781.59;107359;281;98292;-52
2023/11/28 10:23:08;;;;;;;62.20;36.30;;;;;;;-0.52;84.46;98783.73;107254;281;154004;-51
2023/11/28 10:25:47;;;;;;;64.00;37.20;;;;;;;-0.49;84.44;98775.55;107387;281;105587;-54
2023/11/28 10:28:29;;;;;;;61.70;35.80;;;;;;;-0.39;84.56;98769.95;107390;281;114412;-55
2023/11/28 10:31:21;;;;;;;62.90;37.20;;;;;;;-0.25;84.41;98764.92;107241;280;155472;-55
2023/11/28 10:34:08;;;;;;;63.00;37.20;;;;;;;-0.23;84.32;98763.38;107422;280;98112;-52
2023/11/28 10:37:00;;;;;;;61.80;35.90;;;;;;;-0.21;84.29;98760.58;107225;280;154584;-52
2023/11/28 10:39:42;;;;;;;65.00;37.80;;;;;;;-0.09;84.36;98759.05;107249;281;107002;-52
2023/11/28 10:42:18;;;;;;;64.70;37.70;;;;;;;-0.00;83.99;98756.05;107166;281;154958;-53
2023/11/28 10:44:59;;;;;;;68.00;38.20;;;;;;;0.02;84.19;98751.08;107372;281;94048;-55
2023/11/28 10:47:42;;;;;;;71.30;38.90;;;;;;;0.03;84.10;98749.14;107271;281;153815;-52
2023/11/28 10:50:23;;;;;;;80.40;40.10;;;;;;;-0.00;84.01;98746.86;107382;281;120802;-55
2023/11/28 10:53:06;;;;;;;69.50;38.80;;;;;;;0.05;83.85;98745.97;107279;280;155435;-55
2023/11/28 10:56:00;;;;;;;59.10;34.40;;;;;;;0.04;83.44;98749.27;107404;280;114297;-54
2023/11/28 10:58:39;;;;;;;69.40;36.60;;;;;;;-0.00;83.33;98742.27;107402;280;93462;-52
2023/11/28 11:01:23;;;;;;;64.80;34.10;;;;;;;-0.04;83.25;98741.71;107383;280;96820;-56
2023/11/28 11:04:00;;;;;;;60.80;34.10;;;;;;;-0.03;83.46;98740.63;107399;280;118486;-52
2023/11/28 11:06:40;;;;;;;61.80;34.00;;;;;;;0.01;83.09;98736.84;107259;280;154641;-53
2023/11/28 11:09:23;;;;;;;53.70;31.70;;;;;;;-0.11;82.68;98732.61;107445;281;112853;-54
2023/11/28 11:12:03;;;;;;;66.70;35.00;;;;;;;-0.25;82.89;98727.98;107191;281;155035;-56
2023/11/28 11:14:56;;;;;;;56.70;34.00;;;;;;;-0.30;82.66;98731.33;107380;281;97144;-52
2023/11/28 11:17:44;;;;;;;61.70;34.00;;;;;;;-0.44;82.40;98729.39;107252;281;154159;-53
2023/11/28 11:20:28;;;;;;;71.60;38.30;;;;;;;-0.48;82.29;98728.45;107321;281;107058;-51
2023/11/28 11:23:08;;;;;;;60.90;33.20;;;;;;;-0.51;82.48;98729.33;107256;280;153969;-50
2023/11/28 11:25:59;;;;;;;66.70;37.50;;;;;;;-0.48;82.43;98722.28;107429;280;95233;-53
2023/11/28 11:28:37;;;;;;;60.80;33.30;;;;;;;-0.44;82.59;98723.10;107472;280;96847;-54
2023/11/28 11:31:17;;;;;;;62.10;33.90;;;;;;;-0.40;82.65;98721.88;107175;281;155520;-53
2023/11/28 11:34:26;;;;;;;63.50;33.70;;;;;;;-0.41;82.36;98721.90;107380;281;105481;-54
2023/11/28 11:37:13;;;;;;;59.70;35.30;;;;;;;-0.38;82.63;98724.37;107181;281;154271;-54
2023/11/28 11:39:55;;;;;;;69.30;37.90;;;;;;;-0.35;82.68;98723.55;107383;281;91597;-51
2023/11/28 11:42:40;;;;;;;49.80;29.00;;;;;;;-0.36;82.29;98718.48;107223;281;155164;-52
2023/11/28 11:45:23;;;;;;;61.70;34.90;;;;;;;-0.43;82.36;98717.50;107415;281;119789;-51
2023/11/28 11:48:07;;;;;;;61.40;35.00;;;;;;;-0.52;82.20;98722.14;107317;280;154264;-51
2023/11/28 11:50:45;;;;;;;64.50;34.80;;;;;;;-0.68;81.92;98720.05;107495;280;114300;-54
2023/11/28 11:53:33;;;;;;;68.70;37.20;;;;;;;-0.67;82.06;98717.90;107288;280;154279;-54
2023/11/28 11:56:23;;;;;;;61.90;34.00;;;;;;;-0.79;82.23;98720.02;107290;281;98047;-53
2023/11/28 11:59:11;;;;;;;58.80;33.60;;;;;;;-0.76;82.21;98717.60;107261;281;155975;-52
2023/11/28 12:01:53;;;;;;;63.10;35.00;;;;;;;-0.76;82.24;98715.61;107273;281;106006;-53
2023/11/28 12:04:31;;;;;;;57.50;33.20;;;;;;;-0.80;82.29;98718.36;107411;281;114595;-55
2023/11/28 12:07:13;;;;;;;63.60;36.10;;;;;;;-0.78;82.40;98720.84;107248;281;154396;-56
2023/11/28 12:09:57;;;;;;;62.50;34.60;;;;;;;-0.73;82.49;98719.73;107319;281;99490;-54
2023/11/28 12:12:41;;;;;;;60.10;33.90;;;;;;;-0.66;82.43;98721.12;107167;281;153890;-54